Time;durP1;ratioP1;P1;durP2;ratioP2;P2;SDS_P1;SDS_P2;PMS_P1;PMS_P2;Temp;Humidity;BMP_temperature;BMP_pressure;BME280_temperature;BME280_humidity;BME280_pressure;Samples;Min_cycle;Max_cycle;Signal;HPM_P1;HPM_P2
2023/12/25 00:01:20;;;;;;;61.73;58.03;;;;;;;;;;5073304;28;20526;-80
2023/12/25 00:03:47;;;;;;;56.30;52.93;;;;;;;;;;5072344;28;20835;-79
2023/12/25 00:06:14;;;;;;;54.93;51.80;;;;;;;;;;5073593;28;20473;-80
2023/12/25 00:08:42;;;;;;;53.73;50.53;;;;;;;;;;5072692;28;20457;-80
2023/12/25 00:11:10;;;;;;;53.43;50.43;;;;;;;;;;5072471;28;20453;-80
2023/12/25 00:13:38;;;;;;;50.70;47.40;;;;;;;;;;5072480;28;20485;-80
2023/12/25 00:16:05;;;;;;;50.90;47.90;;;;;;;;;;5075683;28;20458;-80
2023/12/25 00:18:32;;;;;;;49.63;46.53;;;;;;;;;;5093188;28;20449;-80
2023/12/25 00:20:59;;;;;;;48.33;45.23;;;;;;;;;;5093257;28;20445;-79
2023/12/25 00:23:26;;;;;;;53.80;50.70;;;;;;;;;;5093368;28;20518;-78
2023/12/25 00:25:53;;;;;;;51.83;48.93;;;;;;;;;;5093315;28;20457;-80
2023/12/25 00:28:20;;;;;;;53.33;49.80;;;;;;;;;;5092895;28;20525;-79
2023/12/25 00:30:49;;;;;;;56.93;53.53;;;;;;;;;;5092800;28;20560;-80
2023/12/25 00:33:16;;;;;;;50.47;47.47;;;;;;;;;;5093759;28;20479;-80
2023/12/25 00:35:42;;;;;;;54.97;51.47;;;;;;;;;;5093529;28;20453;-80
2023/12/25 00:38:09;;;;;;;55.00;51.00;;;;;;;;;;5092796;28;20569;-80
2023/12/25 00:40:36;;;;;;;54.77;51.50;;;;;;;;;;5093113;28;20432;-81
2023/12/25 00:43:03;;;;;;;51.20;48.20;;;;;;;;;;5093628;28;20494;-80
2023/12/25 00:45:30;;;;;;;56.40;53.10;;;;;;;;;;5093122;28;20445;-79
2023/12/25 00:47:59;;;;;;;62.13;58.57;;;;;;;;;;5082498;28;20546;-80
2023/12/25 00:50:26;;;;;;;63.70;59.90;;;;;;;;;;5072276;28;20454;-81
2023/12/25 00:52:53;;;;;;;62.43;58.73;;;;;;;;;;5073257;28;20462;-80
2023/12/25 00:55:20;;;;;;;56.20;52.90;;;;;;;;;;5072763;28;20445;-80
2023/12/25 00:57:47;;;;;;;59.90;55.90;;;;;;;;;;5072669;28;20535;-80
2023/12/25 01:00:14;;;;;;;57.27;53.70;;;;;;;;;;5072498;28;20434;-80
2023/12/25 01:02:41;;;;;;;58.03;54.37;;;;;;;;;;5071958;28;20454;-79
2023/12/25 01:05:10;;;;;;;54.90;51.60;;;;;;;;;;5072180;28;20440;-80
2023/12/25 01:07:37;;;;;;;53.60;50.30;;;;;;;;;;5072063;28;21055;-80
2023/12/25 01:10:04;;;;;;;59.40;55.43;;;;;;;;;;5072196;28;20442;-79
2023/12/25 01:12:31;;;;;;;56.43;52.93;;;;;;;;;;5071825;28;20874;-80
2023/12/25 01:14:58;;;;;;;49.80;46.60;;;;;;;;;;5084204;28;20472;-79
2023/12/25 01:17:25;;;;;;;50.60;47.60;;;;;;;;;;5096065;28;20435;-80
2023/12/25 01:19:52;;;;;;;56.20;52.60;;;;;;;;;;5096101;28;20540;-80
2023/12/25 01:22:21;;;;;;;50.10;47.10;;;;;;;;;;5095589;28;20441;-80
2023/12/25 01:24:48;;;;;;;53.00;49.90;;;;;;;;;;5095983;28;20411;-80
2023/12/25 01:27:15;;;;;;;54.07;50.87;;;;;;;;;;5095643;28;20564;-79
2023/12/25 01:29:42;;;;;;;52.87;49.73;;;;;;;;;;5096479;28;20540;-80
2023/12/25 01:32:09;;;;;;;54.50;51.37;;;;;;;;;;5095932;28;20437;-80
2023/12/25 01:34:36;;;;;;;54.63;51.33;;;;;;;;;;5096653;28;20445;-80
2023/12/25 01:37:04;;;;;;;52.57;49.57;;;;;;;;;;5095506;28;20538;-80
2023/12/25 01:39:32;;;;;;;59.60;56.10;;;;;;;;;;5095590;28;20443;-80
2023/12/25 01:41:59;;;;;;;53.13;50.10;;;;;;;;;;5095227;28;20970;-79
2023/12/25 01:44:26;;;;;;;53.53;50.53;;;;;;;;;;5095314;28;20485;-80
2023/12/25 01:46:53;;;;;;;52.57;49.47;;;;;;;;;;5094843;28;20464;-80
2023/12/25 01:49:21;;;;;;;50.37;47.40;;;;;;;;;;5094578;28;20465;-79
2023/12/25 01:51:48;;;;;;;52.03;48.93;;;;;;;;;;5094994;28;20448;-79
2023/12/25 01:54:15;;;;;;;49.47;46.67;;;;;;;;;;5095664;28;20518;-80
2023/12/25 01:56:43;;;;;;;51.50;48.50;;;;;;;;;;5095338;28;20545;-80
2023/12/25 01:59:10;;;;;;;49.63;46.80;;;;;;;;;;5095532;28;20509;-79
2023/12/25 02:01:37;;;;;;;51.70;48.80;;;;;;;;;;5095319;28;20445;-79
2023/12/25 02:04:05;;;;;;;51.30;48.40;;;;;;;;;;5095578;28;20448;-80
2023/12/25 02:06:33;;;;;;;55.13;51.97;;;;;;;;;;5095341;28;21055;-80
2023/12/25 02:09:00;;;;;;;53.33;50.13;;;;;;;;;;5094584;28;20484;-80
2023/12/25 02:11:27;;;;;;;52.33;49.37;;;;;;;;;;5095137;28;20433;-80
2023/12/25 02:13:57;;;;;;;50.80;47.90;;;;;;;;;;5095679;28;20449;-80
2023/12/25 02:16:24;;;;;;;41.60;38.90;;;;;;;;;;5095696;28;20849;-80
2023/12/25 02:18:51;;;;;;;44.60;41.40;;;;;;;;;;5096369;28;20524;-80
2023/12/25 02:21:18;;;;;;;34.87;32.77;;;;;;;;;;5095119;28;20437;-80
2023/12/25 02:23:48;;;;;;;25.50;24.10;;;;;;;;;;5095305;28;20453;-81
2023/12/25 02:26:17;;;;;;;23.13;21.47;;;;;;;;;;5094936;28;20453;-81
2023/12/25 02:28:44;;;;;;;23.03;21.40;;;;;;;;;;5095194;28;20530;-81
2023/12/25 02:31:12;;;;;;;19.27;18.40;;;;;;;;;;5095058;28;20419;-81
2023/12/25 02:33:39;;;;;;;19.73;18.70;;;;;;;;;;5095781;28;20483;-82
2023/12/25 02:36:06;;;;;;;19.43;18.27;;;;;;;;;;5094672;28;20465;-80
2023/12/25 02:38:33;;;;;;;19.50;18.50;;;;;;;;;;5094880;28;20660;-81
2023/12/25 02:41:00;;;;;;;18.87;18.07;;;;;;;;;;5094725;28;20449;-81
2023/12/25 02:43:28;;;;;;;18.70;17.90;;;;;;;;;;5094988;28;20437;-80
2023/12/25 02:45:55;;;;;;;18.10;17.30;;;;;;;;;;5093909;28;20457;-80
2023/12/25 02:48:22;;;;;;;18.03;17.23;;;;;;;;;;5094645;28;20534;-80
2023/12/25 02:50:49;;;;;;;18.90;17.70;;;;;;;;;;5094349;28;20471;-80
2023/12/25 02:53:16;;;;;;;18.30;17.50;;;;;;;;;;5094014;28;20449;-80
2023/12/25 02:55:43;;;;;;;17.80;16.97;;;;;;;;;;5094107;28;21026;-79
2023/12/25 02:58:10;;;;;;;18.73;17.83;;;;;;;;;;5094611;28;20821;-80
2023/12/25 03:00:38;;;;;;;17.87;17.07;;;;;;;;;;5093916;28;20813;-80
2023/12/25 03:03:05;;;;;;;18.17;17.17;;;;;;;;;;5085154;28;20511;-80
2023/12/25 03:05:32;;;;;;;18.53;17.63;;;;;;;;;;5073634;28;20518;-80
2023/12/25 03:07:59;;;;;;;18.20;17.30;;;;;;;;;;5079246;28;20541;-80
2023/12/25 03:10:26;;;;;;;18.73;17.90;;;;;;;;;;5093677;28;20449;-79
2023/12/25 03:12:53;;;;;;;18.23;17.33;;;;;;;;;;5093914;28;20437;-80
2023/12/25 03:15:20;;;;;;;18.23;17.33;;;;;;;;;;5093247;28;20457;-80
2023/12/25 03:17:49;;;;;;;18.97;17.90;;;;;;;;;;5094113;28;20976;-79
2023/12/25 03:20:16;;;;;;;21.23;20.07;;;;;;;;;;5094132;28;20449;-80
2023/12/25 03:22:44;;;;;;;21.40;20.40;;;;;;;;;;5092852;28;20993;-79
2023/12/25 03:25:11;;;;;;;20.07;19.10;;;;;;;;;;5092782;28;20861;-79
2023/12/25 03:27:38;;;;;;;19.73;18.80;;;;;;;;;;5092673;28;20557;-80
2023/12/25 03:30:06;;;;;;;21.23;20.23;;;;;;;;;;5093231;28;20498;-79
2023/12/25 03:32:33;;;;;;;21.10;19.90;;;;;;;;;;5092536;28;21006;-80
2023/12/25 03:35:02;;;;;;;19.70;18.27;;;;;;;;;;5092676;28;20864;-80
2023/12/25 03:37:29;;;;;;;18.43;17.53;;;;;;;;;;5091416;28;20491;-80
2023/12/25 03:39:57;;;;;;;18.63;17.63;;;;;;;;;;5092630;28;20455;-80
2023/12/25 03:42:24;;;;;;;19.30;18.30;;;;;;;;;;5091455;28;20805;-80
2023/12/25 03:44:51;;;;;;;18.63;17.83;;;;;;;;;;5092617;28;20495;-80
2023/12/25 03:47:18;;;;;;;20.03;18.97;;;;;;;;;;5091799;28;20545;-81
2023/12/25 03:49:45;;;;;;;18.93;18.03;;;;;;;;;;5092760;28;20456;-79
2023/12/25 03:52:13;;;;;;;19.23;18.33;;;;;;;;;;5092196;28;20499;-80
2023/12/25 03:54:40;;;;;;;20.43;19.00;;;;;;;;;;5092697;28;20445;-80
2023/12/25 03:57:08;;;;;;;19.03;18.23;;;;;;;;;;5092416;28;20570;-80
2023/12/25 03:59:35;;;;;;;18.87;17.87;;;;;;;;;;5093462;28;20449;-80
2023/12/25 04:02:02;;;;;;;19.83;18.57;;;;;;;;;;5092277;28;20449;-80
2023/12/25 04:04:29;;;;;;;20.67;19.67;;;;;;;;;;5093257;28;20453;-80
2023/12/25 04:06:56;;;;;;;19.43;18.57;;;;;;;;;;5092455;28;20465;-80
2023/12/25 04:09:24;;;;;;;19.90;19.00;;;;;;;;;;5093213;28;20522;-79
2023/12/25 04:11:51;;;;;;;19.57;18.63;;;;;;;;;;5092059;28;20441;-80
2023/12/25 04:14:18;;;;;;;20.97;19.27;;;;;;;;;;5093182;28;20446;-80
2023/12/25 04:16:45;;;;;;;19.80;18.90;;;;;;;;;;5092336;28;20477;-80
2023/12/25 04:19:12;;;;;;;19.93;19.03;;;;;;;;;;5092084;28;20491;-80
2023/12/25 04:21:39;;;;;;;19.60;18.60;;;;;;;;;;5091631;28;20942;-80
2023/12/25 04:24:07;;;;;;;18.97;18.07;;;;;;;;;;5092626;28;21001;-80
2023/12/25 04:26:36;;;;;;;19.37;18.37;;;;;;;;;;5092229;28;20469;-80
2023/12/25 04:29:03;;;;;;;18.80;17.90;;;;;;;;;;5092214;28;20485;-79
2023/12/25 04:31:30;;;;;;;20.60;19.60;;;;;;;;;;5091720;28;20449;-80
2023/12/25 04:33:57;;;;;;;20.07;19.03;;;;;;;;;;5092624;28;20817;-79
2023/12/25 04:36:24;;;;;;;21.80;20.70;;;;;;;;;;5092172;28;20498;-80
2023/12/25 04:38:50;;;;;;;22.47;21.17;;;;;;;;;;5091856;28;20465;-80
2023/12/25 04:41:21;;;;;;;23.17;21.97;;;;;;;;;;5091862;28;20441;-79
2023/12/25 04:43:50;;;;;;;22.10;21.10;;;;;;;;;;5092454;28;20439;-79
2023/12/25 04:46:18;;;;;;;22.97;21.43;;;;;;;;;;5091878;28;20520;-80
2023/12/25 04:48:45;;;;;;;19.73;18.83;;;;;;;;;;5090907;28;20484;-80
2023/12/25 04:51:12;;;;;;;20.37;19.43;;;;;;;;;;5091937;28;20482;-80
2023/12/25 04:53:39;;;;;;;21.53;20.33;;;;;;;;;;5092095;28;20928;-79
2023/12/25 04:56:06;;;;;;;20.67;19.67;;;;;;;;;;5092134;28;20441;-79
2023/12/25 04:58:33;;;;;;;20.87;19.87;;;;;;;;;;5091950;28;20440;-80
2023/12/25 05:01:01;;;;;;;20.50;19.50;;;;;;;;;;5090852;28;20499;-81
2023/12/25 05:03:28;;;;;;;21.50;20.40;;;;;;;;;;5092477;28;20513;-80
2023/12/25 05:05:56;;;;;;;21.97;20.77;;;;;;;;;;5092508;28;20454;-80
2023/12/25 05:08:23;;;;;;;21.50;20.10;;;;;;;;;;5092011;28;20515;-80
2023/12/25 05:10:51;;;;;;;19.70;18.80;;;;;;;;;;5091022;28;20518;-81
2023/12/25 05:13:18;;;;;;;20.33;19.13;;;;;;;;;;5091967;28;20423;-80
2023/12/25 05:15:45;;;;;;;21.50;20.07;;;;;;;;;;5092058;28;20510;-80
2023/12/25 05:18:13;;;;;;;19.60;18.70;;;;;;;;;;5091588;28;20465;-80
2023/12/25 05:20:40;;;;;;;19.43;18.53;;;;;;;;;;5091122;28;20480;-80
2023/12/25 05:23:08;;;;;;;19.80;18.90;;;;;;;;;;5091969;28;20506;-80
2023/12/25 05:25:35;;;;;;;19.53;18.43;;;;;;;;;;5091862;28;20445;-80
2023/12/25 05:28:02;;;;;;;19.47;18.43;;;;;;;;;;5091320;28;20500;-79
2023/12/25 05:30:29;;;;;;;19.80;18.80;;;;;;;;;;5090957;28;20483;-80
2023/12/25 05:32:56;;;;;;;19.63;18.73;;;;;;;;;;5092103;28;20475;-80
2023/12/25 05:35:24;;;;;;;20.63;19.50;;;;;;;;;;5091641;28;20517;-80
2023/12/25 05:37:51;;;;;;;21.27;19.50;;;;;;;;;;5091630;28;20472;-80
2023/12/25 05:40:18;;;;;;;19.93;19.03;;;;;;;;;;5091685;28;20491;-79
2023/12/25 05:42:45;;;;;;;19.30;18.37;;;;;;;;;;5090447;28;21047;-79
2023/12/25 05:45:12;;;;;;;20.20;18.90;;;;;;;;;;5091168;28;20932;-79
2023/12/25 05:47:39;;;;;;;20.40;19.40;;;;;;;;;;5090583;28;20965;-79
2023/12/25 05:50:07;;;;;;;19.17;17.97;;;;;;;;;;5091265;28;20522;-79
2023/12/25 05:52:36;;;;;;;19.97;18.97;;;;;;;;;;5089948;28;20519;-79
2023/12/25 05:55:03;;;;;;;21.30;19.83;;;;;;;;;;5091272;28;20505;-80
2023/12/25 05:57:30;;;;;;;21.80;20.40;;;;;;;;;;5090966;28;20461;-80
2023/12/25 05:59:57;;;;;;;21.27;19.87;;;;;;;;;;5092960;28;20452;-80
2023/12/25 06:02:24;;;;;;;22.10;20.50;;;;;;;;;;5094761;28;20441;-79
2023/12/25 06:04:50;;;;;;;22.97;21.03;;;;;;;;;;5094173;28;20468;-79
2023/12/25 06:07:17;;;;;;;23.03;21.50;;;;;;;;;;5094835;28;20530;-80
2023/12/25 06:09:46;;;;;;;23.20;21.67;;;;;;;;;;5095165;28;20480;-80
2023/12/25 06:12:13;;;;;;;24.47;22.50;;;;;;;;;;5093658;28;20440;-80
2023/12/25 06:14:40;;;;;;;24.03;22.30;;;;;;;;;;5094334;28;20468;-79
2023/12/25 06:17:07;;;;;;;21.77;20.63;;;;;;;;;;5094650;28;20472;-79
2023/12/25 06:19:34;;;;;;;22.23;20.90;;;;;;;;;;5094102;28;21269;-80
2023/12/25 06:22:01;;;;;;;23.90;22.40;;;;;;;;;;5093487;28;20440;-80
2023/12/25 06:24:28;;;;;;;22.53;21.10;;;;;;;;;;5093395;28;20448;-80
2023/12/25 06:26:56;;;;;;;23.60;22.30;;;;;;;;;;5094008;28;20464;-80
2023/12/25 06:29:23;;;;;;;22.30;21.20;;;;;;;;;;5094419;28;20533;-80
2023/12/25 06:31:50;;;;;;;24.17;22.43;;;;;;;;;;5093534;28;20467;-80
2023/12/25 06:34:17;;;;;;;25.00;23.27;;;;;;;;;;5093924;28;20449;-79
2023/12/25 06:36:44;;;;;;;24.33;22.90;;;;;;;;;;5093758;28;20488;-80
2023/12/25 06:39:11;;;;;;;25.40;23.70;;;;;;;;;;5091354;28;20542;-80
2023/12/25 06:41:38;;;;;;;24.37;22.93;;;;;;;;;;5073562;28;20445;-79
2023/12/25 06:44:06;;;;;;;25.90;24.30;;;;;;;;;;5088833;28;20933;-79
2023/12/25 06:46:35;;;;;;;24.10;22.70;;;;;;;;;;5094247;28;20480;-80
2023/12/25 06:49:02;;;;;;;25.37;23.67;;;;;;;;;;5073220;28;20540;-79
2023/12/25 06:51:29;;;;;;;23.63;22.37;;;;;;;;;;5073496;28;20442;-80
2023/12/25 06:53:56;;;;;;;23.50;22.10;;;;;;;;;;5073525;28;20441;-79
2023/12/25 06:56:23;;;;;;;22.50;21.10;;;;;;;;;;5073437;28;20521;-79
2023/12/25 06:58:50;;;;;;;24.70;23.13;;;;;;;;;;5072730;28;20484;-81
2023/12/25 07:01:23;;;;;;;22.40;21.10;;;;;;;;;;5087507;28;20465;-80
2023/12/25 07:03:50;;;;;;;23.40;22.00;;;;;;;;;;5092772;28;21028;-79
2023/12/25 07:06:17;;;;;;;29.13;26.20;;;;;;;;;;5081325;28;21115;-80
2023/12/25 07:08:45;;;;;;;240.03;101.07;;;;;;;;;;5080940;28;20489;-81
2023/12/25 07:11:13;;;;;;;41.60;37.10;;;;;;;;;;5085614;28;20459;-80
2023/12/25 07:13:40;;;;;;;30.77;28.17;;;;;;;;;;5094049;28;20805;-80
2023/12/25 07:16:07;;;;;;;98.67;60.13;;;;;;;;;;5093287;28;20980;-80
2023/12/25 07:18:36;;;;;;;72.60;59.13;;;;;;;;;;5093197;28;20469;-80
2023/12/25 07:21:03;;;;;;;218.03;128.87;;;;;;;;;;5092345;28;20445;-80
2023/12/25 07:23:30;;;;;;;31.47;28.90;;;;;;;;;;5093225;28;20983;-80
2023/12/25 07:25:57;;;;;;;40.30;35.50;;;;;;;;;;5092759;28;20944;-80
2023/12/25 07:28:24;;;;;;;40.30;36.50;;;;;;;;;;5092080;28;20545;-80
2023/12/25 07:30:51;;;;;;;29.10;26.53;;;;;;;;;;5092116;28;20441;-80
2023/12/25 07:33:18;;;;;;;30.17;27.87;;;;;;;;;;5092629;28;20448;-80
2023/12/25 07:35:46;;;;;;;42.67;38.87;;;;;;;;;;5092626;28;20444;-80
2023/12/25 07:38:13;;;;;;;27.87;26.20;;;;;;;;;;5092822;28;20472;-80
2023/12/25 07:40:40;;;;;;;30.57;28.50;;;;;;;;;;5091161;28;20538;-80
2023/12/25 07:43:10;;;;;;;33.17;30.90;;;;;;;;;;5092411;28;20498;-80
2023/12/25 07:45:36;;;;;;;29.27;27.47;;;;;;;;;;5091860;28;20463;-80
2023/12/25 07:48:04;;;;;;;33.37;31.10;;;;;;;;;;5092034;28;20472;-80
2023/12/25 07:50:31;;;;;;;25.83;23.80;;;;;;;;;;5092311;28;20488;-80
2023/12/25 07:52:59;;;;;;;34.10;31.70;;;;;;;;;;5092818;28;20930;-78
2023/12/25 07:55:26;;;;;;;28.23;26.37;;;;;;;;;;5075568;28;21104;-77
2023/12/25 07:57:53;;;;;;;26.70;24.97;;;;;;;;;;5084006;28;20485;-78
2023/12/25 08:00:21;;;;;;;26.20;24.10;;;;;;;;;;5079334;28;20457;-78
2023/12/25 08:02:48;;;;;;;23.97;22.67;;;;;;;;;;5079139;28;21211;-78
2023/12/25 08:05:15;;;;;;;25.87;24.17;;;;;;;;;;5087950;28;20811;-77
2023/12/25 08:07:42;;;;;;;25.80;23.97;;;;;;;;;;5091286;28;20476;-78
2023/12/25 08:10:11;;;;;;;28.93;27.23;;;;;;;;;;5090982;28;20530;-77
2023/12/25 08:12:42;;;;;;;26.57;25.00;;;;;;;;;;5071442;28;20930;-80
2023/12/25 08:15:10;;;;;;;27.27;25.50;;;;;;;;;;5071679;28;20927;-78
2023/12/25 08:17:37;;;;;;;28.23;26.47;;;;;;;;;;5071565;28;20477;-77
2023/12/25 08:20:05;;;;;;;27.80;25.80;;;;;;;;;;5072125;28;20499;-78
2023/12/25 08:22:32;;;;;;;28.50;26.43;;;;;;;;;;5091044;28;20848;-78
2023/12/25 08:24:59;;;;;;;26.87;25.03;;;;;;;;;;5091372;28;20945;-77
2023/12/25 08:27:27;;;;;;;24.90;23.40;;;;;;;;;;5090756;28;20484;-77
2023/12/25 08:29:54;;;;;;;28.97;26.57;;;;;;;;;;5091886;28;20538;-77
2023/12/25 08:32:21;;;;;;;27.20;25.60;;;;;;;;;;5089159;28;20456;-77
2023/12/25 08:34:48;;;;;;;26.57;24.87;;;;;;;;;;5076479;28;20445;-76
2023/12/25 08:37:15;;;;;;;25.47;23.93;;;;;;;;;;5070965;28;20466;-76
2023/12/25 08:39:42;;;;;;;27.27;25.67;;;;;;;;;;5070300;28;20492;-76
2023/12/25 08:42:09;;;;;;;24.70;22.83;;;;;;;;;;5070185;28;20457;-77
2023/12/25 08:44:38;;;;;;;28.20;26.27;;;;;;;;;;5071127;28;20488;-77
2023/12/25 08:47:05;;;;;;;26.57;24.87;;;;;;;;;;5070937;28;20466;-78
2023/12/25 08:49:33;;;;;;;27.67;25.67;;;;;;;;;;5070612;28;20993;-76
2023/12/25 08:52:00;;;;;;;28.13;26.23;;;;;;;;;;5074046;28;20478;-76
2023/12/25 08:54:27;;;;;;;27.03;25.33;;;;;;;;;;5083150;28;20510;-77
2023/12/25 08:56:54;;;;;;;25.77;24.27;;;;;;;;;;5098271;28;20500;-79
2023/12/25 08:59:21;;;;;;;28.87;27.00;;;;;;;;;;5101825;28;20448;-80
2023/12/25 09:01:49;;;;;;;29.80;27.37;;;;;;;;;;5089137;28;20530;-81
2023/12/25 09:04:16;;;;;;;28.10;26.20;;;;;;;;;;5078014;28;20462;-79
2023/12/25 09:06:43;;;;;;;29.03;26.73;;;;;;;;;;5088622;28;21019;-78
2023/12/25 09:09:12;;;;;;;26.27;24.47;;;;;;;;;;5101287;28;20462;-79
2023/12/25 09:11:39;;;;;;;27.07;25.20;;;;;;;;;;5094607;28;20882;-81
2023/12/25 09:14:06;;;;;;;27.77;25.67;;;;;;;;;;5075000;28;20459;-79
2023/12/25 09:16:34;;;;;;;26.40;24.53;;;;;;;;;;5078266;28;20468;-79
2023/12/25 09:19:03;;;;;;;27.50;25.30;;;;;;;;;;5082133;28;20450;-78
2023/12/25 09:21:30;;;;;;;26.80;25.40;;;;;;;;;;5099421;28;20501;-80
2023/12/25 09:23:57;;;;;;;25.27;24.07;;;;;;;;;;5101398;28;20546;-81
2023/12/25 09:26:24;;;;;;;25.50;23.80;;;;;;;;;;5098728;28;20476;-79
2023/12/25 09:28:51;;;;;;;22.73;21.43;;;;;;;;;;5094622;28;20455;-79
2023/12/25 09:31:18;;;;;;;23.37;22.07;;;;;;;;;;5103856;28;20481;-78
2023/12/25 09:33:45;;;;;;;25.13;23.60;;;;;;;;;;5103578;28;20469;-79
2023/12/25 09:36:15;;;;;;;27.90;25.63;;;;;;;;;;5111277;28;20889;-79
2023/12/25 09:38:42;;;;;;;24.90;23.40;;;;;;;;;;5098693;28;20444;-81
2023/12/25 09:41:09;;;;;;;25.13;23.83;;;;;;;;;;5081636;28;20438;-79
2023/12/25 09:43:38;;;;;;;26.50;24.80;;;;;;;;;;5095756;28;20465;-79
2023/12/25 09:46:06;;;;;;;23.67;22.27;;;;;;;;;;5112580;28;20453;-79
2023/12/25 09:48:33;;;;;;;24.67;23.37;;;;;;;;;;5110998;28;20445;-80
2023/12/25 09:51:00;;;;;;;25.50;24.13;;;;;;;;;;5103360;28;20485;-81
2023/12/25 09:53:30;;;;;;;28.33;26.13;;;;;;;;;;5100152;28;20506;-79
2023/12/25 09:55:57;;;;;;;26.13;24.53;;;;;;;;;;5100845;28;20502;-78
2023/12/25 09:58:24;;;;;;;27.00;25.53;;;;;;;;;;5091800;28;20491;-80
2023/12/25 10:00:51;;;;;;;26.13;24.80;;;;;;;;;;5088495;28;20442;-78
2023/12/25 10:03:19;;;;;;;26.07;24.57;;;;;;;;;;5088894;28;20806;-80
2023/12/25 10:05:46;;;;;;;28.50;26.80;;;;;;;;;;5093742;28;20468;-80
2023/12/25 10:08:13;;;;;;;29.67;27.70;;;;;;;;;;5090014;28;20503;-80
2023/12/25 10:10:41;;;;;;;28.60;27.00;;;;;;;;;;5088305;28;20493;-80
2023/12/25 10:13:08;;;;;;;29.60;27.90;;;;;;;;;;5098206;28;20458;-79
2023/12/25 10:15:35;;;;;;;28.53;27.03;;;;;;;;;;5104342;28;20448;-79
2023/12/25 10:18:03;;;;;;;27.90;26.37;;;;;;;;;;5108132;28;20494;-80
2023/12/25 10:20:30;;;;;;;26.53;24.73;;;;;;;;;;5107622;28;20476;-79
2023/12/25 10:22:58;;;;;;;27.50;25.93;;;;;;;;;;5093964;28;20434;-79
2023/12/25 10:25:26;;;;;;;25.83;24.43;;;;;;;;;;5091971;28;20453;-79
2023/12/25 10:27:55;;;;;;;28.17;26.47;;;;;;;;;;5090220;28;20477;-79
2023/12/25 10:30:23;;;;;;;26.77;25.00;;;;;;;;;;5096149;28;20484;-79
2023/12/25 10:32:50;;;;;;;26.80;25.10;;;;;;;;;;5096416;28;20445;-79
2023/12/25 10:35:18;;;;;;;25.57;23.97;;;;;;;;;;5078226;28;20425;-80
2023/12/25 10:37:45;;;;;;;26.50;24.50;;;;;;;;;;5089622;28;20512;-79
2023/12/25 10:40:18;;;;;;;24.77;23.10;;;;;;;;;;5083372;28;20453;-79
2023/12/25 10:42:46;;;;;;;24.03;22.73;;;;;;;;;;5083148;28;20578;-79
2023/12/25 10:45:15;;;;;;;25.17;23.67;;;;;;;;;;5098214;28;20461;-79
2023/12/25 10:47:42;;;;;;;25.20;23.43;;;;;;;;;;5102914;28;20469;-80
2023/12/25 10:50:10;;;;;;;24.70;23.20;;;;;;;;;;5106948;28;20874;-79
2023/12/25 10:52:37;;;;;;;25.63;24.03;;;;;;;;;;5108782;28;20485;-80
2023/12/25 10:55:05;;;;;;;24.97;23.23;;;;;;;;;;5095314;28;20433;-87
2023/12/25 10:57:32;;;;;;;26.47;24.97;;;;;;;;;;5108207;28;20510;-79
2023/12/25 11:00:04;;;;;;;24.30;22.90;;;;;;;;;;5087036;28;20468;-80
2023/12/25 11:02:35;;;;;;;24.10;22.43;;;;;;;;;;5076305;28;20462;-80
2023/12/25 11:05:03;;;;;;;24.10;22.50;;;;;;;;;;5085014;28;20437;-80
2023/12/25 11:07:30;;;;;;;24.20;22.60;;;;;;;;;;5097859;28;20476;-80
2023/12/25 11:09:57;;;;;;;24.43;22.50;;;;;;;;;;5098680;28;20455;-79
2023/12/25 11:12:24;;;;;;;25.00;23.37;;;;;;;;;;5096618;28;20933;-80
2023/12/25 11:14:52;;;;;;;25.20;23.67;;;;;;;;;;5096705;28;20477;-80
2023/12/25 11:17:19;;;;;;;24.70;23.20;;;;;;;;;;5095900;28;20526;-80
2023/12/25 11:19:48;;;;;;;24.00;22.40;;;;;;;;;;5096088;28;20449;-79
2023/12/25 11:22:28;;;;;;;23.07;21.77;;;;;;;;;;5094841;28;20453;-80
2023/12/25 11:24:55;;;;;;;21.80;20.50;;;;;;;;;;5095282;28;20448;-80
2023/12/25 11:27:22;;;;;;;24.40;22.90;;;;;;;;;;5094221;28;20506;-79
2023/12/25 11:29:49;;;;;;;23.97;22.27;;;;;;;;;;5097667;28;20816;-90
2023/12/25 11:32:18;;;;;;;25.37;23.77;;;;;;;;;;5086473;28;20445;-81
2023/12/25 11:34:48;;;;;;;23.97;22.30;;;;;;;;;;5095012;28;20506;-80
2023/12/25 11:37:20;;;;;;;24.13;22.50;;;;;;;;;;5094160;28;20469;-80
2023/12/25 11:39:54;;;;;;;22.70;20.80;;;;;;;;;;5093088;28;20480;-79
2023/12/25 11:42:21;;;;;;;21.30;20.00;;;;;;;;;;5094419;28;20449;-81
2023/12/25 11:44:49;;;;;;;22.90;21.53;;;;;;;;;;5094756;28;20453;-79
2023/12/25 11:47:27;;;;;;;23.07;21.53;;;;;;;;;;5095156;28;20512;-82
2023/12/25 11:49:54;;;;;;;25.00;23.60;;;;;;;;;;5095062;28;20471;-80
2023/12/25 11:52:36;;;;;;;27.40;25.57;;;;;;;;;;5093513;28;20491;-80
2023/12/25 11:55:05;;;;;;;29.73;27.83;;;;;;;;;;5093639;28;20941;-80
2023/12/25 11:57:32;;;;;;;27.27;25.50;;;;;;;;;;5093383;28;20465;-80
2023/12/25 11:59:59;;;;;;;26.53;24.93;;;;;;;;;;5093619;28;20460;-80
2023/12/25 12:02:27;;;;;;;27.13;25.53;;;;;;;;;;5074227;28;21094;-80
2023/12/25 12:04:54;;;;;;;25.63;23.63;;;;;;;;;;5073260;28;21079;-79
2023/12/25 12:07:22;;;;;;;27.53;25.83;;;;;;;;;;5073363;28;20530;-79
2023/12/25 12:09:49;;;;;;;25.43;23.70;;;;;;;;;;5073395;28;20450;-80
2023/12/25 12:12:17;;;;;;;26.30;24.90;;;;;;;;;;5072266;28;20551;-80
2023/12/25 12:14:44;;;;;;;26.00;24.40;;;;;;;;;;5073357;28;20503;-80
2023/12/25 12:17:11;;;;;;;24.90;23.33;;;;;;;;;;5072143;28;20551;-79
2023/12/25 12:19:38;;;;;;;27.50;25.70;;;;;;;;;;5075275;28;20456;-79
2023/12/25 12:22:05;;;;;;;23.37;22.07;;;;;;;;;;5092596;28;20445;-79
2023/12/25 12:24:32;;;;;;;23.73;22.23;;;;;;;;;;5092925;28;20997;-80
2023/12/25 12:27:04;;;;;;;23.93;22.60;;;;;;;;;;5092189;28;20938;-80
2023/12/25 12:29:32;;;;;;;25.30;23.40;;;;;;;;;;5092862;28;20429;-79
2023/12/25 12:31:59;;;;;;;26.07;24.47;;;;;;;;;;5091551;28;20480;-80
2023/12/25 12:34:26;;;;;;;25.20;23.80;;;;;;;;;;5092348;28;20483;-79
2023/12/25 12:36:57;;;;;;;29.80;27.37;;;;;;;;;;5091472;28;21372;-79
2023/12/25 12:39:24;;;;;;;25.80;24.53;;;;;;;;;;5092684;28;20553;-79
2023/12/25 12:41:50;;;;;;;27.50;25.70;;;;;;;;;;5090439;28;20449;-80
2023/12/25 12:44:17;;;;;;;27.83;25.83;;;;;;;;;;5091997;28;20507;-79
2023/12/25 12:46:45;;;;;;;26.70;24.80;;;;;;;;;;5077731;28;20477;-78
2023/12/25 12:49:12;;;;;;;29.93;27.50;;;;;;;;;;5088493;28;20536;-79
2023/12/25 12:51:40;;;;;;;25.83;24.13;;;;;;;;;;5086476;28;20496;-80
2023/12/25 12:54:07;;;;;;;24.83;23.20;;;;;;;;;;5078953;28;20464;-79
2023/12/25 12:56:34;;;;;;;27.37;25.70;;;;;;;;;;5073132;28;20461;-81
2023/12/25 12:59:01;;;;;;;26.73;25.27;;;;;;;;;;5073986;28;20504;-83
2023/12/25 13:01:29;;;;;;;26.33;24.63;;;;;;;;;;5073176;28;20503;-81
2023/12/25 13:03:59;;;;;;;49.10;43.77;;;;;;;;;;5072583;28;20813;-81
2023/12/25 13:06:26;;;;;;;28.63;26.60;;;;;;;;;;5072499;28;20470;-80
2023/12/25 13:08:54;;;;;;;27.47;25.73;;;;;;;;;;5072970;28;20450;-83
2023/12/25 13:11:22;;;;;;;23.63;22.33;;;;;;;;;;5092338;28;20520;-80
2023/12/25 13:13:49;;;;;;;25.30;23.73;;;;;;;;;;5098127;28;20867;-81
2023/12/25 13:16:18;;;;;;;22.90;21.10;;;;;;;;;;5097213;28;20643;-81
2023/12/25 13:18:46;;;;;;;29.23;27.20;;;;;;;;;;5088962;28;20484;-81
2023/12/25 13:21:14;;;;;;;28.07;25.97;;;;;;;;;;5092415;28;20473;-81
2023/12/25 13:23:42;;;;;;;25.23;23.83;;;;;;;;;;5082808;28;20521;-81
2023/12/25 13:26:09;;;;;;;24.20;22.70;;;;;;;;;;5097739;28;20444;-80
2023/12/25 13:28:36;;;;;;;28.57;26.67;;;;;;;;;;5097854;28;20525;-80
2023/12/25 13:31:04;;;;;;;31.23;29.40;;;;;;;;;;5096597;28;20544;-81
2023/12/25 13:33:31;;;;;;;25.00;23.57;;;;;;;;;;5097873;28;20528;-83
2023/12/25 13:35:58;;;;;;;28.67;26.97;;;;;;;;;;5097799;28;20445;-80
2023/12/25 13:38:26;;;;;;;28.30;26.37;;;;;;;;;;5096800;28;20484;-80
2023/12/25 13:40:54;;;;;;;26.10;24.60;;;;;;;;;;5096119;28;20475;-80
2023/12/25 13:43:21;;;;;;;27.20;25.60;;;;;;;;;;5097305;28;20453;-81
2023/12/25 13:45:48;;;;;;;25.07;23.67;;;;;;;;;;5090676;28;20461;-81
2023/12/25 13:48:15;;;;;;;24.13;22.73;;;;;;;;;;5077419;28;20523;-80
2023/12/25 13:50:42;;;;;;;22.23;21.03;;;;;;;;;;5073745;28;20480;-78
2023/12/25 13:53:08;;;;;;;22.77;21.47;;;;;;;;;;5088515;28;20480;-78
2023/12/25 13:55:37;;;;;;;22.57;21.37;;;;;;;;;;5093117;28;20448;-79
2023/12/25 13:58:04;;;;;;;23.23;22.10;;;;;;;;;;5095670;28;20464;-79
2023/12/25 14:00:31;;;;;;;26.00;24.20;;;;;;;;;;5095557;28;20565;-80
2023/12/25 14:02:58;;;;;;;23.80;22.40;;;;;;;;;;5095724;28;20555;-79
2023/12/25 14:05:25;;;;;;;22.97;21.77;;;;;;;;;;5095584;28;20448;-79
2023/12/25 14:07:52;;;;;;;23.93;22.50;;;;;;;;;;5089738;28;20477;-87
2023/12/25 14:10:19;;;;;;;21.97;20.77;;;;;;;;;;5092817;28;20449;-79
2023/12/25 14:12:48;;;;;;;23.00;21.80;;;;;;;;;;5074428;28;20518;-79
2023/12/25 14:15:15;;;;;;;25.00;23.70;;;;;;;;;;5074302;28;20565;-79
2023/12/25 14:17:44;;;;;;;24.60;23.27;;;;;;;;;;5074823;28;20941;-79